Time;durP1;ratioP1;P1;durP2;ratioP2;P2;SDS_P1;SDS_P2;PMS_P1;PMS_P2;Temp;Humidity;BMP_temperature;BMP_pressure;BME280_temperature;BME280_humidity;BME280_pressure;Samples;Min_cycle;Max_cycle;Signal;HPM_P1;HPM_P2
2021/07/30 00:00:17;;;;;;;6.82;3.95;;;;;;;17.24;69.43;99523.34;2191814;40;20042;-85
2021/07/30 00:01:49;;;;;;;6.35;4.03;;;;;;;17.20;69.59;99522.09;2194056;40;20090;-86
2021/07/30 00:03:20;;;;;;;6.32;3.97;;;;;;;17.19;69.91;99518.56;2197853;40;20042;-84
2021/07/30 00:04:51;;;;;;;6.18;3.63;;;;;;;17.20;69.87;99520.19;2197707;40;20031;-85
2021/07/30 00:06:24;;;;;;;7.05;4.40;;;;;;;17.25;70.17;99519.59;2197861;40;20031;-87
2021/07/30 00:07:55;;;;;;;7.97;4.05;;;;;;;17.29;69.93;99519.00;2197785;40;20039;-85
2021/07/30 00:09:27;;;;;;;7.20;3.72;;;;;;;17.31;69.86;99514.22;2197775;40;20037;-85
2021/07/30 00:10:58;;;;;;;6.88;4.00;;;;;;;17.33;69.53;99518.59;2197857;40;20039;-85
2021/07/30 00:12:29;;;;;;;6.95;3.90;;;;;;;17.33;69.87;99515.91;2197927;40;20039;-87
2021/07/30 00:14:01;;;;;;;5.80;3.58;;;;;;;17.29;69.64;99518.16;2197865;40;20031;-85
2021/07/30 00:15:33;;;;;;;8.88;4.32;;;;;;;17.30;69.77;99519.84;2197769;40;20043;-86
2021/07/30 00:17:04;;;;;;;6.68;4.35;;;;;;;17.29;69.90;99516.28;2197886;40;20035;-84
2021/07/30 00:18:40;;;;;;;7.80;4.35;;;;;;;17.33;69.76;99518.59;2197951;40;20039;-88
2021/07/30 00:20:11;;;;;;;6.10;4.20;;;;;;;17.22;69.59;99512.75;2197970;40;20016;-87
2021/07/30 00:21:44;;;;;;;6.93;4.15;;;;;;;17.13;69.78;99520.19;2197873;40;20023;-84
2021/07/30 00:23:16;;;;;;;6.75;3.90;;;;;;;17.08;69.78;99517.25;2191945;40;20035;-88
2021/07/30 00:24:47;;;;;;;7.38;3.83;;;;;;;17.07;69.53;99520.97;2192077;40;20047;-86
2021/07/30 00:26:19;;;;;;;6.50;3.65;;;;;;;17.07;69.58;99520.16;2191577;40;20047;-85
2021/07/30 00:27:51;;;;;;;9.85;3.90;;;;;;;17.06;69.51;99518.47;2191693;40;20039;-84
2021/07/30 00:29:22;;;;;;;7.65;3.75;;;;;;;17.04;69.75;99523.25;2191732;40;20044;-87
2021/07/30 00:30:53;;;;;;;7.28;4.00;;;;;;;16.99;69.96;99515.75;2192091;40;20032;-87
2021/07/30 00:39:02;;;;;;;10.25;4.18;;;;;;;16.83;70.97;99519.56;2208309;40;20037;-89
2021/07/30 00:40:35;;;;;;;8.90;4.10;;;;;;;16.78;71.08;99519.34;2204323;40;20027;-87
2021/07/30 00:42:07;;;;;;;6.15;4.35;;;;;;;16.77;71.20;99521.19;2191650;40;20624;-87
2021/07/30 00:43:39;;;;;;;10.65;4.45;;;;;;;16.76;71.30;99516.00;2196884;40;20757;-88
2021/07/30 00:45:10;;;;;;;16.15;4.50;;;;;;;16.79;71.44;99512.91;2190368;40;20028;-87
2021/07/30 00:46:45;;;;;;;7.20;4.88;;;;;;;16.81;71.39;99518.94;2179464;41;20661;-86
2021/07/30 00:48:16;;;;;;;9.40;5.50;;;;;;;16.86;71.03;99521.88;2178188;41;20039;-90
2021/07/30 00:49:49;;;;;;;8.15;4.60;;;;;;;16.86;70.88;99521.88;2190900;40;20024;-88
2021/07/30 00:51:22;;;;;;;7.00;4.93;;;;;;;16.82;71.26;99528.69;2179474;40;20039;-89
2021/07/30 00:52:53;;;;;;;7.35;3.67;;;;;;;16.87;70.90;99520.00;2173240;41;20032;-86
2021/07/30 00:54:27;;;;;;;7.50;4.25;;;;;;;16.91;70.54;99527.50;2167433;41;20052;-88
2021/07/30 00:55:59;;;;;;;5.45;4.07;;;;;;;16.93;70.73;99516.53;2155880;41;20042;-89
2021/07/30 00:57:31;;;;;;;9.18;3.67;;;;;;;16.90;70.40;99522.31;2155818;41;20038;-85
2021/07/30 00:59:03;;;;;;;6.25;3.70;;;;;;;16.80;70.76;99519.97;2150159;41;20042;-86
2021/07/30 01:00:35;;;;;;;8.02;3.67;;;;;;;16.72;70.68;99515.56;2137075;41;20043;-87
2021/07/30 01:02:06;;;;;;;6.68;3.20;;;;;;;16.71;70.76;99516.59;2149819;41;20034;-89
2021/07/30 01:03:38;;;;;;;4.68;2.92;;;;;;;16.69;70.69;99526.75;2149975;41;20084;-86
2021/07/30 01:05:11;;;;;;;7.93;3.63;;;;;;;16.66;70.82;99530.69;2142224;41;20043;-86
2021/07/30 01:06:42;;;;;;;10.18;3.80;;;;;;;16.59;71.12;99515.47;2142795;41;20510;-84
2021/07/30 01:08:14;;;;;;;6.47;3.58;;;;;;;16.53;70.94;99517.94;2138086;41;20047;-89
2021/07/30 01:09:47;;;;;;;9.55;3.42;;;;;;;16.50;71.13;99509.41;2138072;41;20043;-86
2021/07/30 01:11:19;;;;;;;8.18;3.95;;;;;;;16.47;70.87;99515.19;2138511;41;20043;-85
2021/07/30 01:12:54;;;;;;;5.40;3.38;;;;;;;16.49;70.92;99527.44;2147743;41;20665;-85
2021/07/30 01:14:25;;;;;;;5.35;3.83;;;;;;;16.48;71.05;99516.84;2157176;41;20493;-85
2021/07/30 01:16:00;;;;;;;6.18;3.58;;;;;;;16.48;71.09;99516.84;2168022;41;20033;-86
2021/07/30 01:17:32;;;;;;;6.85;4.10;;;;;;;16.45;71.31;99526.19;2172579;41;20029;-84
2021/07/30 01:19:03;;;;;;;6.95;3.40;;;;;;;16.47;71.05;99521.44;2172768;41;20029;-86
2021/07/30 01:20:38;;;;;;;8.38;4.10;;;;;;;16.48;71.41;99517.66;2172574;41;20659;-85
2021/07/30 01:22:23;;;;;;;5.88;3.65;;;;;;;16.49;71.07;99518.53;2191546;40;20028;-88
2021/07/30 01:23:55;;;;;;;7.57;3.60;;;;;;;16.45;71.10;99512.69;2194225;40;20564;-82
2021/07/30 01:25:30;;;;;;;5.90;3.53;;;;;;;16.42;71.11;99518.47;2195714;40;20039;-81
2021/07/30 01:27:01;;;;;;;5.55;3.70;;;;;;;16.40;71.45;99514.31;2189861;40;20040;-81
2021/07/30 01:28:33;;;;;;;7.38;3.78;;;;;;;16.36;71.44;99514.69;2190323;40;20047;-81
2021/07/30 01:30:06;;;;;;;4.88;3.17;;;;;;;16.41;71.27;99526.75;2190454;40;20047;-82
2021/07/30 01:31:37;;;;;;;5.65;3.67;;;;;;;16.42;71.17;99517.66;2189905;40;20047;-82
2021/07/30 01:33:09;;;;;;;9.68;3.85;;;;;;;16.41;71.42;99522.19;2194529;40;20101;-85
2021/07/30 01:34:42;;;;;;;7.97;3.70;;;;;;;16.40;71.51;99523.22;2196984;40;20034;-84
2021/07/30 01:36:14;;;;;;;7.28;3.50;;;;;;;16.44;71.25;99521.81;2197032;40;20438;-85
2021/07/30 01:37:46;;;;;;;8.15;3.95;;;;;;;16.51;71.27;99522.69;2197062;40;20030;-86
2021/07/30 01:39:18;;;;;;;7.15;3.55;;;;;;;16.60;70.79;99520.69;2196842;40;20036;-84
2021/07/30 01:40:50;;;;;;;7.18;4.10;;;;;;;16.64;70.93;99524.63;2196941;40;20079;-84
2021/07/30 01:42:22;;;;;;;7.50;3.88;;;;;;;16.63;71.20;99525.66;2197593;40;20043;-88
2021/07/30 01:43:53;;;;;;;8.15;3.95;;;;;;;16.58;71.58;99516.53;2197620;40;20020;-88
2021/07/30 01:45:25;;;;;;;6.80;4.07;;;;;;;16.56;71.59;99515.88;2197875;40;20020;-87
2021/07/30 01:46:57;;;;;;;6.40;3.95;;;;;;;16.57;71.71;99517.56;2197944;40;20664;-87
2021/07/30 01:48:28;;;;;;;8.27;3.83;;;;;;;16.51;71.92;99514.59;2179404;40;20604;-87
2021/07/30 01:50:00;;;;;;;8.05;3.78;;;;;;;16.50;71.88;99515.63;2196862;40;20031;-85
2021/07/30 01:51:32;;;;;;;8.32;3.47;;;;;;;16.47;71.88;99515.19;2197939;40;20396;-87
2021/07/30 01:53:03;;;;;;;7.45;3.15;;;;;;;16.44;71.92;99515.56;2185014;40;20530;-87
2021/07/30 01:54:37;;;;;;;5.70;3.03;;;;;;;16.42;71.93;99512.25;2173118;40;20033;-86
2021/07/30 01:56:07;;;;;;;6.57;3.75;;;;;;;16.43;71.97;99513.94;2173322;40;20041;-88
2021/07/30 01:57:39;;;;;;;7.43;4.20;;;;;;;16.46;71.68;99517.06;2173317;40;20040;-89
2021/07/30 01:59:13;;;;;;;7.05;3.45;;;;;;;16.51;71.45;99521.88;2171821;41;20033;-88
2021/07/30 02:00:45;;;;;;;8.73;4.13;;;;;;;16.56;71.27;99521.28;2173387;40;20025;-86
2021/07/30 02:02:17;;;;;;;6.28;3.33;;;;;;;16.56;71.38;99513.19;2181789;40;20028;-86
2021/07/30 02:04:00;;;;;;;6.32;3.60;;;;;;;16.60;71.08;99514.44;2185180;40;20072;-89
2021/07/30 02:05:32;;;;;;;8.65;4.20;;;;;;;16.60;71.21;99503.66;2185623;40;20024;-89
2021/07/30 02:07:04;;;;;;;8.25;3.80;;;;;;;16.58;71.07;99511.13;2194350;40;20120;-83
2021/07/30 02:08:36;;;;;;;5.30;3.47;;;;;;;16.62;70.89;99507.84;2197125;40;20043;-81
2021/07/30 02:10:10;;;;;;;8.07;3.90;;;;;;;16.64;71.05;99505.75;2194058;40;20031;-82
2021/07/30 02:11:42;;;;;;;7.85;4.00;;;;;;;16.60;70.92;99512.59;2191584;40;20312;-82
2021/07/30 02:15:03;;;;;;;8.85;3.75;;;;;;;16.50;71.25;99514.81;2184654;40;20043;-82
2021/07/30 02:16:35;;;;;;;6.50;3.60;;;;;;;16.43;71.39;99514.75;2187347;40;20036;-81
2021/07/30 02:18:07;;;;;;;6.88;3.65;;;;;;;16.38;71.38;99520.72;2187160;40;20031;-82
2021/07/30 02:19:39;;;;;;;7.78;3.63;;;;;;;16.34;71.40;99516.75;2187891;40;20032;-83
2021/07/30 02:21:09;;;;;;;6.22;3.50;;;;;;;16.30;71.32;99510.09;2187263;40;20034;-82
2021/07/30 02:22:41;;;;;;;5.85;3.33;;;;;;;16.33;71.26;99515.09;2187576;40;20648;-82
2021/07/30 02:24:13;;;;;;;5.75;3.00;;;;;;;16.34;71.21;99516.75;2187206;40;20056;-81
2021/07/30 02:25:46;;;;;;;5.85;3.50;;;;;;;16.38;71.18;99515.34;2187549;40;20047;-82
2021/07/30 02:27:18;;;;;;;5.78;3.75;;;;;;;16.35;71.31;99512.19;2187843;40;20047;-83
2021/07/30 02:28:48;;;;;;;5.70;3.65;;;;;;;16.36;71.06;99514.69;2187714;40;20035;-81
2021/07/30 02:30:20;;;;;;;5.97;3.42;;;;;;;16.41;71.18;99510.59;2188165;40;20060;-82
2021/07/30 02:31:52;;;;;;;5.40;3.45;;;;;;;16.48;70.96;99511.47;2187875;40;20051;-83
2021/07/30 02:33:23;;;;;;;6.60;3.72;;;;;;;16.52;70.87;99510.03;2187012;40;20039;-82
2021/07/30 02:34:55;;;;;;;8.40;4.10;;;;;;;16.54;70.93;99507.97;2181723;40;20036;-83
2021/07/30 02:36:26;;;;;;;5.95;3.75;;;;;;;16.59;71.22;99512.78;2181769;41;20552;-82
2021/07/30 02:37:58;;;;;;;5.65;3.50;;;;;;;16.62;70.79;99502.44;2181573;41;20070;-82
2021/07/30 02:39:30;;;;;;;7.18;3.90;;;;;;;16.66;70.93;99501.00;2183609;40;20059;-82
2021/07/30 02:41:03;;;;;;;6.00;3.85;;;;;;;16.60;70.91;99499.09;2192951;40;20031;-82
2021/07/30 02:42:34;;;;;;;7.30;3.33;;;;;;;16.51;71.36;99501.09;2193816;40;20562;-82
2021/07/30 02:44:05;;;;;;;8.25;4.25;;;;;;;16.45;71.76;99501.06;2192720;40;20046;-82
2021/07/30 02:45:36;;;;;;;6.70;3.72;;;;;;;16.40;71.56;99495.44;2187843;40;20036;-83
2021/07/30 02:47:08;;;;;;;7.90;3.75;;;;;;;16.37;72.07;99496.66;2188218;40;20052;-82
2021/07/30 02:48:40;;;;;;;6.43;3.72;;;;;;;16.34;71.96;99500.56;2193320;40;20032;-81
2021/07/30 02:50:11;;;;;;;8.98;4.25;;;;;;;16.29;72.24;99494.94;2193256;40;20042;-82
2021/07/30 02:51:43;;;;;;;7.20;3.95;;;;;;;16.23;72.35;99495.72;2193253;40;20043;-83
2021/07/30 02:53:14;;;;;;;7.72;4.10;;;;;;;16.18;72.61;99498.16;2193689;40;20035;-82
2021/07/30 02:54:46;;;;;;;5.93;3.58;;;;;;;16.15;72.68;99498.56;2193809;40;20500;-82
2021/07/30 02:56:19;;;;;;;6.50;3.55;;;;;;;16.14;72.66;99496.91;2193856;40;20047;-82
2021/07/30 02:57:50;;;;;;;6.10;3.47;;;;;;;16.15;72.54;99503.97;2193788;40;20400;-81
2021/07/30 02:59:22;;;;;;;7.57;3.97;;;;;;;16.11;72.89;99500.78;2193756;40;20036;-82
2021/07/30 03:01:00;;;;;;;5.53;3.80;;;;;;;16.03;72.93;99491.00;2193929;40;20035;-81
2021/07/30 03:02:30;;;;;;;7.43;4.15;;;;;;;16.00;73.10;99490.56;2194400;40;20071;-83
2021/07/30 03:04:02;;;;;;;8.85;4.15;;;;;;;15.95;73.50;99490.28;2192903;40;20074;-83
2021/07/30 03:05:34;;;;;;;6.45;4.03;;;;;;;15.90;73.57;99489.03;2192696;40;20035;-81
2021/07/30 03:07:06;;;;;;;6.57;4.18;;;;;;;15.85;73.76;99494.13;2190235;40;20036;-81
2021/07/30 03:08:38;;;;;;;8.18;3.97;;;;;;;15.83;73.74;99498.84;2188286;40;20043;-82
2021/07/30 03:10:10;;;;;;;6.38;4.22;;;;;;;15.81;73.74;99495.53;2188282;40;20046;-83
2021/07/30 03:11:44;;;;;;;8.05;4.03;;;;;;;15.75;73.73;99491.75;2188010;40;20039;-85
2021/07/30 03:13:14;;;;;;;7.45;3.35;;;;;;;15.70;73.87;99488.78;2191119;40;20035;-84
2021/07/30 03:14:46;;;;;;;5.97;3.70;;;;;;;15.69;73.66;99502.44;2190913;40;20032;-82
2021/07/30 03:16:18;;;;;;;6.22;3.35;;;;;;;15.65;73.87;99498.47;2189443;40;20036;-84
2021/07/30 03:17:49;;;;;;;9.48;3.70;;;;;;;15.64;73.57;99489.56;2191472;40;20038;-84
2021/07/30 03:19:21;;;;;;;6.82;3.97;;;;;;;15.62;73.60;99488.91;2190727;40;20048;-81
2021/07/30 03:20:53;;;;;;;6.85;4.00;;;;;;;15.60;73.62;99490.94;2189659;40;20044;-83
2021/07/30 03:22:24;;;;;;;7.22;4.13;;;;;;;15.61;73.31;99489.94;2190741;40;20422;-81
2021/07/30 03:23:56;;;;;;;6.22;3.80;;;;;;;15.66;73.09;99484.81;2194815;40;20044;-83
2021/07/30 03:25:27;;;;;;;6.07;3.30;;;;;;;15.64;73.12;99489.56;2196301;40;20082;-82
2021/07/30 03:27:00;;;;;;;7.43;3.55;;;;;;;15.60;73.12;99482.88;2196417;40;20047;-82
2021/07/30 03:28:32;;;;;;;7.35;4.35;;;;;;;15.57;73.17;99483.28;2196514;40;20031;-82
2021/07/30 03:30:04;;;;;;;6.68;3.85;;;;;;;15.60;72.75;99477.47;2195998;40;20038;-82
2021/07/30 03:31:36;;;;;;;6.05;3.72;;;;;;;15.58;72.74;99483.06;2195848;40;20031;-81
2021/07/30 03:33:07;;;;;;;6.45;3.75;;;;;;;15.59;73.07;99473.09;2195549;40;20428;-81
2021/07/30 03:34:39;;;;;;;5.88;3.70;;;;;;;15.62;72.99;99474.63;2195205;40;20114;-81
2021/07/30 03:36:11;;;;;;;8.38;4.10;;;;;;;15.65;72.82;99475.06;2195593;40;20042;-81
2021/07/30 03:37:42;;;;;;;6.03;3.85;;;;;;;15.64;72.88;99473.38;2195374;40;20038;-81
2021/07/30 03:39:14;;;;;;;5.10;3.47;;;;;;;15.61;72.88;99473.75;2194990;40;20071;-81
2021/07/30 03:40:45;;;;;;;5.22;3.10;;;;;;;15.61;73.04;99473.75;2194807;40;20059;-81
2021/07/30 03:42:19;;;;;;;6.43;3.35;;;;;;;15.57;72.54;99477.88;2193642;40;20122;-81
2021/07/30 03:43:50;;;;;;;6.65;3.45;;;;;;;15.56;73.10;99487.81;2195012;40;20040;-82
2021/07/30 03:45:22;;;;;;;10.23;3.58;;;;;;;15.55;72.95;99482.63;2196127;40;20042;-82
2021/07/30 03:46:53;;;;;;;8.70;3.70;;;;;;;15.53;73.00;99477.44;2195777;40;20034;-81
2021/07/30 03:48:25;;;;;;;6.03;3.60;;;;;;;15.55;73.37;99472.66;2197290;40;20454;-81
2021/07/30 03:49:57;;;;;;;10.73;3.95;;;;;;;15.58;73.14;99469.59;2195650;40;20043;-81
2021/07/30 03:51:29;;;;;;;7.22;3.28;;;;;;;15.66;73.30;99478.56;2195293;40;20311;-80
2021/07/30 03:53:01;;;;;;;6.43;3.97;;;;;;;15.72;72.86;99469.75;2194852;40;20035;-81
2021/07/30 03:54:32;;;;;;;5.18;3.42;;;;;;;15.77;72.77;99471.84;2195200;40;20047;-82
2021/07/30 03:56:13;;;;;;;7.22;3.20;;;;;;;15.80;72.72;99472.31;2195365;40;20045;-84
2021/07/30 03:57:46;;;;;;;6.25;3.30;;;;;;;15.86;72.49;99466.16;2191039;40;20455;-83
2021/07/30 03:59:17;;;;;;;6.72;3.28;;;;;;;15.95;72.54;99469.56;2189128;40;20684;-84
2021/07/30 04:00:49;;;;;;;12.27;7.43;;;;;;;16.00;72.28;99469.81;2190646;40;20023;-83
2021/07/30 04:02:20;;;;;;;8.40;5.22;;;;;;;16.03;72.35;99466.72;2190639;40;20042;-83
2021/07/30 04:03:52;;;;;;;8.45;4.70;;;;;;;16.00;72.53;99461.72;2191169;40;20044;-82
2021/07/30 04:05:24;;;;;;;7.68;4.20;;;;;;;15.97;72.80;99477.44;2190938;40;20035;-84
2021/07/30 04:06:55;;;;;;;8.60;4.25;;;;;;;15.97;73.27;99470.19;2190878;40;20027;-83
2021/07/30 04:08:27;;;;;;;7.88;3.58;;;;;;;16.00;73.32;99466.28;2191411;40;20053;-84
2021/07/30 04:09:59;;;;;;;6.50;3.53;;;;;;;16.05;73.36;99474.63;2191527;40;20032;-84
2021/07/30 04:11:30;;;;;;;8.95;4.47;;;;;;;16.05;73.06;99469.22;2190369;40;20068;-81
2021/07/30 04:13:03;;;;;;;7.28;4.18;;;;;;;16.05;73.51;99464.69;2191474;40;20038;-84
2021/07/30 04:14:35;;;;;;;11.80;4.40;;;;;;;16.03;73.44;99466.72;2178556;41;20045;-83
2021/07/30 04:16:08;;;;;;;7.45;3.80;;;;;;;16.03;73.33;99471.28;2178826;41;20040;-85
2021/07/30 04:17:40;;;;;;;5.50;3.30;;;;;;;15.98;73.95;99469.16;2178391;41;20044;-84
2021/07/30 04:19:12;;;;;;;7.35;4.18;;;;;;;15.97;73.69;99472.88;2174968;41;20040;-82
2021/07/30 04:20:44;;;;;;;8.23;4.07;;;;;;;15.94;73.72;99472.44;2188004;40;20110;-83
2021/07/30 04:22:16;;;;;;;5.95;3.95;;;;;;;15.94;73.75;99473.28;2190947;40;20036;-83
2021/07/30 04:23:48;;;;;;;7.50;4.18;;;;;;;15.94;73.64;99472.44;2189646;40;20040;-83
2021/07/30 04:25:21;;;;;;;9.45;5.20;;;;;;;15.87;73.93;99472.41;2191611;40;20043;-83
2021/07/30 04:26:53;;;;;;;8.45;4.43;;;;;;;15.77;74.22;99477.25;2190475;40;20387;-83
2021/07/30 04:28:26;;;;;;;13.18;4.55;;;;;;;15.77;74.26;99471.84;2190757;40;20052;-84
2021/07/30 04:29:58;;;;;;;8.80;5.13;;;;;;;15.82;73.91;99464.00;2191084;40;20043;-84
2021/07/30 04:31:29;;;;;;;7.50;4.10;;;;;;;15.88;73.80;99463.25;2189715;40;20760;-87
2021/07/30 04:33:01;;;;;;;7.32;4.32;;;;;;;15.90;73.60;99472.00;2190563;40;20036;-82
2021/07/30 04:34:33;;;;;;;9.85;4.85;;;;;;;15.89;73.58;99464.94;2190680;40;20052;-82
2021/07/30 04:36:04;;;;;;;7.35;4.70;;;;;;;15.88;73.70;99465.97;2190724;40;20060;-84
2021/07/30 04:37:36;;;;;;;7.80;4.40;;;;;;;15.89;73.59;99459.53;2190728;40;20055;-82
2021/07/30 04:39:08;;;;;;;9.25;4.10;;;;;;;15.97;73.54;99472.06;2189074;40;20031;-83
2021/07/30 04:40:40;;;;;;;9.77;4.50;;;;;;;16.01;73.64;99467.97;2190546;40;20158;-83
2021/07/30 04:42:12;;;;;;;7.78;3.85;;;;;;;16.02;73.23;99466.91;2181627;40;20028;-83
2021/07/30 04:43:45;;;;;;;7.70;4.53;;;;;;;16.03;73.18;99466.72;2190699;40;20441;-83
2021/07/30 04:45:17;;;;;;;8.30;4.57;;;;;;;16.05;73.15;99469.22;2190477;40;20036;-84
2021/07/30 04:46:49;;;;;;;15.70;4.65;;;;;;;16.05;72.99;99464.69;2189514;40;20047;-82
2021/07/30 04:48:22;;;;;;;11.80;4.38;;;;;;;16.04;73.41;99472.94;2190253;40;20388;-84
2021/07/30 04:49:54;;;;;;;9.63;4.95;;;;;;;16.09;73.39;99470.50;2190666;40;20048;-82
2021/07/30 04:51:26;;;;;;;8.77;4.53;;;;;;;16.12;73.03;99475.50;2189105;40;20036;-85
2021/07/30 04:52:57;;;;;;;7.05;4.10;;;;;;;16.10;72.77;99469.50;2190814;40;20308;-84
2021/07/30 04:54:29;;;;;;;9.75;4.30;;;;;;;16.11;73.15;99465.75;2190823;40;20044;-83
2021/07/30 04:55:59;;;;;;;11.60;5.07;;;;;;;16.14;72.89;99475.31;2190946;40;20047;-83
2021/07/30 04:57:31;;;;;;;10.63;4.38;;;;;;;16.16;73.04;99473.25;2188843;40;20401;-84
2021/07/30 04:59:05;;;;;;;15.77;5.85;;;;;;;16.19;72.93;99472.84;2190546;40;20050;-83
2021/07/30 05:00:36;;;;;;;17.17;6.10;;;;;;;16.19;72.68;99476.41;2190430;40;20039;-83
2021/07/30 05:02:09;;;;;;;14.23;5.32;;;;;;;16.22;72.46;99469.78;2190598;40;20032;-84
2021/07/30 05:03:40;;;;;;;10.60;4.93;;;;;;;16.22;72.54;99467.09;2177739;41;20041;-84
2021/07/30 05:05:12;;;;;;;16.85;5.97;;;;;;;16.22;72.40;99473.31;2177958;41;20032;-83
2021/07/30 05:06:44;;;;;;;11.05;5.55;;;;;;;16.25;72.33;99469.38;2177877;41;20047;-84
2021/07/30 05:08:16;;;;;;;12.23;5.60;;;;;;;16.27;72.33;99469.19;2171791;41;20465;-83
2021/07/30 05:09:47;;;;;;;10.80;4.68;;;;;;;16.30;72.00;99460.69;2178161;41;20045;-83
2021/07/30 05:11:18;;;;;;;9.55;4.00;;;;;;;16.34;71.89;99460.09;2177506;41;20036;-83
2021/07/30 05:12:50;;;;;;;8.48;4.32;;;;;;;16.38;71.82;99458.69;2179313;41;20033;-85
2021/07/30 05:14:23;;;;;;;7.68;4.13;;;;;;;16.41;71.86;99462.84;2178522;41;20048;-84
2021/07/30 05:15:54;;;;;;;10.00;5.68;;;;;;;16.41;71.78;99468.25;2178577;41;20024;-85
2021/07/30 05:17:26;;;;;;;11.98;5.88;;;;;;;16.33;71.95;99471.94;2178811;41;20045;-82
2021/07/30 05:18:58;;;;;;;8.50;5.35;;;;;;;16.26;72.08;99476.44;2181425;41;20032;-83
2021/07/30 05:20:30;;;;;;;10.10;6.10;;;;;;;16.21;72.09;99470.81;2181603;41;20067;-83
2021/07/30 05:22:02;;;;;;;9.80;4.95;;;;;;;16.20;72.32;99467.25;2187801;40;20765;-83
2021/07/30 05:23:33;;;;;;;9.27;5.35;;;;;;;16.26;72.30;99465.66;2194273;40;21244;-83
2021/07/30 05:25:06;;;;;;;9.85;4.90;;;;;;;16.35;72.08;99467.16;2193511;40;20064;-82
2021/07/30 05:26:38;;;;;;;10.35;4.97;;;;;;;16.43;71.85;99459.97;2194502;40;20032;-83
2021/07/30 05:28:09;;;;;;;13.10;5.22;;;;;;;16.49;71.57;99465.38;2194637;40;20036;-82
2021/07/30 05:29:42;;;;;;;8.05;4.53;;;;;;;16.51;71.76;99462.50;2195087;40;20040;-84
2021/07/30 05:31:16;;;;;;;9.20;5.18;;;;;;;16.58;71.40;99459.88;2195024;40;20375;-82
2021/07/30 05:32:46;;;;;;;12.02;5.65;;;;;;;16.62;71.13;99459.25;2194649;40;20128;-82
2021/07/30 05:34:18;;;;;;;10.38;5.70;;;;;;;16.65;71.09;99453.44;2194984;40;20205;-82
2021/07/30 05:35:50;;;;;;;13.38;5.28;;;;;;;16.63;71.32;99452.81;2193462;40;20040;-82
2021/07/30 05:37:22;;;;;;;10.00;4.57;;;;;;;16.66;71.01;99454.31;2192273;40;20027;-82
2021/07/30 05:38:54;;;;;;;8.40;4.25;;;;;;;16.73;71.05;99454.31;2195969;40;20039;-81
2021/07/30 05:40:25;;;;;;;10.88;4.93;;;;;;;16.78;71.06;99452.69;2197048;40;20032;-83
2021/07/30 05:41:57;;;;;;;12.70;6.07;;;;;;;16.83;70.79;99455.63;2198355;40;20380;-84
2021/07/30 05:43:28;;;;;;;10.50;5.30;;;;;;;16.89;70.44;99454.00;2189998;40;20062;-84
2021/07/30 05:45:01;;;;;;;14.43;5.30;;;;;;;16.93;70.21;99457.13;2192410;40;20024;-85
2021/07/30 05:46:32;;;;;;;10.13;5.28;;;;;;;16.89;70.11;99456.69;2192377;40;20036;-84
2021/07/30 05:48:04;;;;;;;10.13;5.00;;;;;;;16.89;70.23;99456.69;2179709;41;20562;-85
2021/07/30 05:49:37;;;;;;;9.35;5.25;;;;;;;16.92;70.13;99453.59;2179977;41;20036;-85
2021/07/30 05:51:09;;;;;;;8.35;4.40;;;;;;;16.95;69.86;99455.91;2182052;40;20036;-84
2021/07/30 05:52:41;;;;;;;7.85;3.95;;;;;;;16.97;69.85;99453.84;2190320;40;20032;-84
2021/07/30 05:54:13;;;;;;;8.02;4.72;;;;;;;17.03;69.68;99456.78;2192432;40;20039;-85
2021/07/30 05:55:45;;;;;;;9.98;4.78;;;;;;;17.07;69.44;99453.47;2190996;40;20593;-86
2021/07/30 05:57:16;;;;;;;6.63;4.68;;;;;;;17.13;69.29;99454.53;2192676;40;20038;-84
2021/07/30 05:58:48;;;;;;;6.45;4.40;;;;;;;17.18;69.21;99454.78;2192669;40;20035;-84
2021/07/30 06:00:21;;;;;;;6.35;4.53;;;;;;;17.25;68.85;99452.91;2183131;40;20775;-84
2021/07/30 06:01:53;;;;;;;13.85;6.13;;;;;;;17.28;68.48;99455.22;2191695;40;20036;-83
2021/07/30 06:03:25;;;;;;;8.63;5.07;;;;;;;17.29;68.41;99448.75;2194840;40;20032;-81
2021/07/30 06:04:57;;;;;;;7.47;5.25;;;;;;;17.36;68.47;99448.78;2197440;40;20035;-83
2021/07/30 06:06:29;;;;;;;10.18;5.07;;;;;;;17.40;68.03;99449.22;2196909;40;20043;-82
2021/07/30 06:08:05;;;;;;;9.80;4.97;;;;;;;17.42;67.91;99453.41;2195080;40;20040;-80
2021/07/30 06:09:37;;;;;;;15.52;5.43;;;;;;;17.45;68.14;99452.16;2196391;40;20150;-82
2021/07/30 06:11:07;;;;;;;16.77;6.10;;;;;;;17.48;67.84;99450.91;2192277;40;20050;-81
2021/07/30 06:12:39;;;;;;;14.63;6.18;;;;;;;17.53;67.97;99445.69;2191615;40;20069;-82
2021/07/30 06:14:11;;;;;;;19.25;6.22;;;;;;;17.59;67.69;99451.13;2192764;40;20031;-82
2021/07/30 06:15:44;;;;;;;15.52;6.55;;;;;;;17.62;67.43;99447.16;2194589;40;20032;-81
2021/07/30 06:17:16;;;;;;;8.93;4.88;;;;;;;17.64;67.39;99446.97;2193926;40;20047;-82
2021/07/30 06:18:48;;;;;;;16.42;5.75;;;;;;;17.67;67.37;99449.25;2193542;40;20031;-81
2021/07/30 06:20:19;;;;;;;10.10;4.45;;;;;;;17.71;67.12;99442.41;2193515;40;20370;-81
2021/07/30 06:21:51;;;;;;;12.68;5.07;;;;;;;17.77;67.17;99439.72;2195460;40;20045;-82
2021/07/30 06:23:22;;;;;;;17.75;6.53;;;;;;;17.80;67.06;99446.56;2195890;40;20035;-84
2021/07/30 06:24:53;;;;;;;12.85;4.72;;;;;;;17.76;67.46;99432.66;2196366;40;20046;-82
2021/07/30 06:26:25;;;;;;;12.52;5.10;;;;;;;17.78;67.18;99440.53;2195575;40;20040;-84
2021/07/30 06:27:57;;;;;;;14.05;6.28;;;;;;;17.81;67.21;99440.13;2190264;40;20050;-83
2021/07/30 06:29:29;;;;;;;13.15;5.70;;;;;;;17.82;67.14;99436.41;2191292;40;20031;-81
2021/07/30 06:31:02;;;;;;;14.25;6.38;;;;;;;17.86;66.93;99443.03;2195126;40;20432;-85
2021/07/30 06:32:34;;;;;;;9.18;5.88;;;;;;;17.91;66.74;99427.03;2196369;40;20065;-82
2021/07/30 06:34:05;;;;;;;16.63;6.35;;;;;;;17.92;66.77;99426.00;2194375;40;20039;-82
2021/07/30 06:35:37;;;;;;;12.50;8.02;;;;;;;17.86;66.88;99434.09;2197389;40;20024;-81
2021/07/30 06:37:09;;;;;;;10.52;6.75;;;;;;;17.86;66.80;99432.22;2194844;40;20039;-82
2021/07/30 06:38:41;;;;;;;9.35;6.70;;;;;;;17.95;66.44;99427.44;2195564;40;20032;-83
2021/07/30 06:40:14;;;;;;;12.82;8.05;;;;;;;18.04;66.32;99433.53;2190874;40;20056;-82
2021/07/30 06:41:46;;;;;;;17.92;9.77;;;;;;;18.08;65.82;99429.34;2196728;40;20035;-82
2021/07/30 06:43:18;;;;;;;14.10;7.82;;;;;;;18.12;65.84;99425.19;2196984;40;20039;-83
2021/07/30 06:44:50;;;;;;;15.10;7.00;;;;;;;18.19;65.78;99426.00;2192620;40;20039;-82
2021/07/30 06:46:23;;;;;;;13.82;6.68;;;;;;;18.29;65.21;99424.75;2197441;40;20028;-82
2021/07/30 06:47:54;;;;;;;9.18;5.95;;;;;;;18.32;65.04;99421.63;2197996;40;20624;-83
2021/07/30 06:49:26;;;;;;;9.93;5.72;;;;;;;18.37;64.80;99416.41;2195511;40;20035;-82
2021/07/30 06:50:58;;;;;;;10.45;4.95;;;;;;;18.42;64.16;99418.47;2191246;40;20032;-80
2021/07/30 06:52:30;;;;;;;21.17;14.32;;;;;;;18.47;64.03;99419.50;2195340;40;20055;-81
2021/07/30 06:54:02;;;;;;;12.25;7.78;;;;;;;18.56;64.16;99425.53;2197183;40;20031;-83
2021/07/30 06:55:34;;;;;;;11.15;6.53;;;;;;;18.62;63.55;99427.38;2195768;40;20051;-82
2021/07/30 06:57:06;;;;;;;8.70;6.10;;;;;;;18.69;63.35;99419.25;2196528;40;20042;-83
2021/07/30 06:58:37;;;;;;;8.52;4.68;;;;;;;18.77;63.64;99416.31;2194260;40;20055;-82
2021/07/30 07:00:11;;;;;;;6.25;3.97;;;;;;;18.89;63.48;99412.94;2197017;40;20042;-82
2021/07/30 07:01:45;;;;;;;9.23;4.80;;;;;;;19.01;63.20;99413.94;2200995;40;20042;-83
2021/07/30 07:03:16;;;;;;;7.90;4.97;;;;;;;19.11;62.60;99410.78;2187441;40;20494;-82
2021/07/30 07:04:48;;;;;;;7.43;4.47;;;;;;;19.25;62.37;99408.81;2189949;40;20036;-84
2021/07/30 07:06:20;;;;;;;9.38;4.72;;;;;;;19.38;61.75;99406.00;2183678;40;20044;-83
2021/07/30 07:07:52;;;;;;;7.13;4.00;;;;;;;19.50;61.29;99408.88;2191534;40;20034;-83
2021/07/30 07:09:24;;;;;;;5.78;3.80;;;;;;;19.62;60.61;99396.25;2195905;40;20035;-84
2021/07/30 07:10:55;;;;;;;8.88;3.63;;;;;;;19.72;60.29;99398.50;2194980;40;20378;-84
2021/07/30 07:12:28;;;;;;;5.35;3.55;;;;;;;19.87;59.99;99403.63;2193905;40;20040;-83
2021/07/30 07:13:59;;;;;;;7.38;4.18;;;;;;;20.03;59.59;99394.06;2190220;40;20026;-82
2021/07/30 07:15:31;;;;;;;7.53;4.32;;;;;;;20.25;59.05;99393.66;2197164;40;20040;-84
2021/07/30 07:17:05;;;;;;;9.45;4.63;;;;;;;20.38;58.43;99396.25;2187711;40;20300;-84
2021/07/30 07:18:36;;;;;;;9.32;4.40;;;;;;;20.47;58.18;99388.63;2194476;40;20039;-81
2021/07/30 07:20:09;;;;;;;7.25;4.40;;;;;;;20.53;57.55;99398.59;2194292;40;20041;-84